createdAt,value
2022-12-11T00:01:58.657Z,1.60
2022-12-11T00:04:25.285Z,1.50
2022-12-11T00:06:52.998Z,1.70
2022-12-11T00:09:21.096Z,1.83
2022-12-11T00:11:48.334Z,1.48
2022-12-11T00:14:15.269Z,1.50
2022-12-11T00:16:41.993Z,1.60
2022-12-11T00:19:08.663Z,1.60
2022-12-11T00:21:35.330Z,1.50
2022-12-11T00:24:01.948Z,1.30
2022-12-11T00:26:28.509Z,1.30
2022-12-11T00:28:57.310Z,1.40
2022-12-11T00:31:24.398Z,1.50
2022-12-11T00:33:51.387Z,1.40
2022-12-11T00:36:23.801Z,1.40
2022-12-11T00:38:50.743Z,1.15
2022-12-11T00:41:18.258Z,1.20
2022-12-11T00:43:45.077Z,1.23
2022-12-11T00:46:12.296Z,1.30
2022-12-11T00:48:39.133Z,1.30
2022-12-11T00:51:05.950Z,1.23
2022-12-11T00:53:32.797Z,1.27
2022-12-11T00:55:59.366Z,1.27
2022-12-11T00:58:26.059Z,1.13
2022-12-11T01:00:54.536Z,1.30
2022-12-11T01:03:21.183Z,1.25
2022-12-11T01:05:55.044Z,1.00
2022-12-11T01:08:22.030Z,1.42
2022-12-11T01:10:48.677Z,1.13
2022-12-11T01:13:15.829Z,1.27
2022-12-11T01:15:45.182Z,1.10
2022-12-11T01:18:14.059Z,1.10
2022-12-11T01:20:42.711Z,1.20
2022-12-11T01:23:11.322Z,1.23
2022-12-11T01:25:40.912Z,1.00
2022-12-11T01:28:08.288Z,1.00
2022-12-11T01:30:35.004Z,1.00
2022-12-11T01:33:01.571Z,1.00
2022-12-11T01:35:28.547Z,0.90
2022-12-11T01:37:55.658Z,0.85
2022-12-11T01:40:23.043Z,0.80
2022-12-11T01:42:50.157Z,1.20
2022-12-11T01:45:27.005Z,1.00
2022-12-11T01:48:05.429Z,1.10
2022-12-11T01:50:34.899Z,1.10
2022-12-11T01:53:03.957Z,1.20
2022-12-11T01:55:31.147Z,1.20
2022-12-11T01:57:58.408Z,1.40
2022-12-11T02:00:25.021Z,1.00
2022-12-11T02:02:51.627Z,1.30
2022-12-11T02:05:18.324Z,1.20
2022-12-11T02:07:56.836Z,1.10
2022-12-11T02:10:34.231Z,0.90
2022-12-11T02:13:47.856Z,1.03
2022-12-11T02:16:24.539Z,1.08
2022-12-11T02:19:02.186Z,1.20
2022-12-11T02:21:40.188Z,1.20
2022-12-11T02:24:16.376Z,1.20
2022-12-11T02:27:30.805Z,1.20
2022-12-11T02:30:03.722Z,1.23
2022-12-11T02:32:54.363Z,1.05
2022-12-11T02:35:33.287Z,1.05
2022-12-11T02:38:06.930Z,0.98
2022-12-11T02:40:37.067Z,0.95
2022-12-11T02:43:07.917Z,1.10
2022-12-11T02:45:36.158Z,1.20
2022-12-11T02:48:05.891Z,0.98
2022-12-11T02:50:34.268Z,1.40
2022-12-11T02:53:02.932Z,1.50
2022-12-11T02:55:32.229Z,1.45
2022-12-11T02:58:12.531Z,1.25
2022-12-11T03:00:39.230Z,1.40
2022-12-11T03:03:06.124Z,1.23
2022-12-11T03:05:33.104Z,1.20
2022-12-11T03:07:59.772Z,1.23
2022-12-11T03:10:26.362Z,1.38
2022-12-11T03:12:57.499Z,1.35
2022-12-11T03:15:42.640Z,1.27
2022-12-11T03:18:19.034Z,1.27
2022-12-11T03:20:50.372Z,1.10
2022-12-11T03:23:44.653Z,1.17
2022-12-11T03:26:13.806Z,1.10
2022-12-11T03:28:52.195Z,1.23
2022-12-11T03:31:47.773Z,1.20
2022-12-11T03:34:33.992Z,1.50
2022-12-11T03:37:03.092Z,1.60
2022-12-11T03:39:33.792Z,1.10
2022-12-11T03:42:05.935Z,1.10
2022-12-11T03:44:34.985Z,1.02
2022-12-11T03:47:06.563Z,1.45
2022-12-11T03:49:41.660Z,1.27
2022-12-11T03:52:11.444Z,1.27
2022-12-11T03:54:40.400Z,1.42
2022-12-11T03:57:08.729Z,1.48
2022-12-11T03:59:35.455Z,1.10
2022-12-11T04:02:02.142Z,1.10
2022-12-11T04:04:28.809Z,1.30
2022-12-11T04:06:55.449Z,1.42
2022-12-11T04:09:22.039Z,1.20
2022-12-11T04:11:48.745Z,1.38
2022-12-11T04:14:34.025Z,1.30
2022-12-11T04:17:01.753Z,1.33
2022-12-11T04:19:46.844Z,1.50
2022-12-11T04:22:34.210Z,1.30
2022-12-11T04:25:02.180Z,1.13
2022-12-11T04:27:47.351Z,1.40
2022-12-11T04:30:20.332Z,1.50
2022-12-11T04:32:46.933Z,1.40
2022-12-11T04:35:14.484Z,1.40
2022-12-11T04:37:41.602Z,1.20
2022-12-11T04:40:11.957Z,1.20
2022-12-11T04:42:38.708Z,1.55
2022-12-11T04:45:06.420Z,1.70
2022-12-11T04:47:34.264Z,1.55
2022-12-11T04:50:00.822Z,1.45
2022-12-11T04:52:27.378Z,1.27
2022-12-11T04:54:53.948Z,1.58
2022-12-11T04:57:21.587Z,1.60
2022-12-11T04:59:48.774Z,1.15
2022-12-11T05:02:16.187Z,1.55
2022-12-11T05:04:42.770Z,1.60
2022-12-11T05:07:09.431Z,1.13
2022-12-11T05:09:36.853Z,1.25
2022-12-11T05:12:03.740Z,1.73
2022-12-11T05:14:32.049Z,1.25
2022-12-11T05:16:59.753Z,1.40
2022-12-11T05:19:27.004Z,1.20
2022-12-11T05:21:54.087Z,1.63
2022-12-11T05:24:20.795Z,1.55
2022-12-11T05:26:47.361Z,1.50
2022-12-11T05:29:13.934Z,1.23
2022-12-11T05:31:40.544Z,1.40
2022-12-11T05:34:07.179Z,1.55
2022-12-11T05:36:34.260Z,1.80
2022-12-11T05:39:01.586Z,1.60
2022-12-11T05:41:30.825Z,1.52
2022-12-11T05:43:57.498Z,1.48
2022-12-11T05:46:26.475Z,1.65
2022-12-11T05:48:55.983Z,1.40
2022-12-11T05:51:22.621Z,1.30
2022-12-11T05:53:51.240Z,1.50
2022-12-11T05:56:21.330Z,1.40
2022-12-11T05:58:49.238Z,1.70
2022-12-11T06:01:18.859Z,1.77
2022-12-11T06:03:45.783Z,1.40
2022-12-11T06:06:12.414Z,1.70
2022-12-11T06:08:39.261Z,1.27
2022-12-11T06:11:06.648Z,1.60
2022-12-11T06:13:33.828Z,1.27
2022-12-11T06:16:05.426Z,1.40
2022-12-11T06:18:32.299Z,1.17
2022-12-11T06:20:58.926Z,1.40
2022-12-11T06:23:25.483Z,1.55
2022-12-11T06:25:52.048Z,1.42
2022-12-11T06:28:18.758Z,1.42
2022-12-11T06:30:45.361Z,1.45
2022-12-11T06:33:11.912Z,1.50
2022-12-11T06:35:41.917Z,1.48
2022-12-11T06:38:10.911Z,1.50
2022-12-11T06:40:38.427Z,1.65
2022-12-11T06:43:04.990Z,1.55
2022-12-11T06:45:31.574Z,1.23
2022-12-11T06:47:59.032Z,1.45
2022-12-11T06:50:25.972Z,1.40
2022-12-11T06:52:52.565Z,1.40
2022-12-11T06:55:19.342Z,1.50
2022-12-11T06:57:45.887Z,1.42
2022-12-11T07:00:13.131Z,1.40
2022-12-11T07:02:39.726Z,1.40
2022-12-11T07:05:07.082Z,1.40
2022-12-11T07:07:33.860Z,1.50
2022-12-11T07:10:07.557Z,1.65
2022-12-11T07:12:35.761Z,1.52
2022-12-11T07:15:02.689Z,1.35
2022-12-11T07:17:29.676Z,1.33
2022-12-11T07:19:56.577Z,1.60
2022-12-11T07:22:23.217Z,1.70
2022-12-11T07:24:49.782Z,1.73
2022-12-11T07:27:16.448Z,1.60
2022-12-11T07:29:43.075Z,1.73
2022-12-11T07:32:09.750Z,1.90
2022-12-11T07:34:36.532Z,1.50
2022-12-11T07:37:03.454Z,1.58
2022-12-11T07:39:30.074Z,1.60
2022-12-11T07:41:56.631Z,1.40
2022-12-11T07:44:23.359Z,1.38
2022-12-11T07:46:50.071Z,1.45
2022-12-11T07:49:16.933Z,1.70
2022-12-11T07:51:43.568Z,1.50
2022-12-11T07:54:16.873Z,1.42
2022-12-11T07:56:47.449Z,1.77
2022-12-11T07:59:16.904Z,1.80
2022-12-11T08:01:43.737Z,1.60
2022-12-11T08:04:11.571Z,1.52
2022-12-11T08:06:40.156Z,1.30
2022-12-11T08:09:14.700Z,1.60
2022-12-11T08:11:45.626Z,1.80
2022-12-11T08:14:14.932Z,1.45
2022-12-11T08:16:43.189Z,1.45
2022-12-11T08:19:11.808Z,1.40
2022-12-11T08:21:39.335Z,1.50
2022-12-11T08:24:06.631Z,1.83
2022-12-11T08:26:33.287Z,1.50
2022-12-11T08:29:01.501Z,1.60
2022-12-11T08:31:28.171Z,1.85
2022-12-11T08:33:56.551Z,1.52
2022-12-11T08:36:24.088Z,1.55
2022-12-11T08:38:51.054Z,1.75
2022-12-11T08:41:20.502Z,1.60
2022-12-11T08:43:48.215Z,1.85
2022-12-11T08:46:16.158Z,1.58
2022-12-11T08:48:43.785Z,1.75
2022-12-11T08:51:15.704Z,1.50
2022-12-11T08:53:42.501Z,1.80
2022-12-11T08:56:11.848Z,1.50
2022-12-11T08:58:39.095Z,1.45
2022-12-11T09:01:15.245Z,1.58
2022-12-11T09:03:42.653Z,1.40
2022-12-11T09:06:12.374Z,1.63
2022-12-11T09:08:39.391Z,1.90
2022-12-11T09:11:12.700Z,1.85
2022-12-11T09:13:40.610Z,1.50
2022-12-11T09:16:10.313Z,1.80
2022-12-11T09:18:38.454Z,1.50
2022-12-11T09:21:10.339Z,1.35
2022-12-11T09:23:37.493Z,1.75
2022-12-11T09:26:06.190Z,1.42
2022-12-11T09:28:33.672Z,1.50
2022-12-11T09:31:00.773Z,1.60
2022-12-11T09:33:27.704Z,1.40
2022-12-11T09:36:00.940Z,1.38
2022-12-11T09:38:27.595Z,1.58
2022-12-11T09:40:54.227Z,1.60
2022-12-11T09:43:41.123Z,1.40
2022-12-11T09:46:13.199Z,1.40
2022-12-11T09:48:46.386Z,1.17
2022-12-11T09:51:23.590Z,1.40
2022-12-11T09:53:51.701Z,1.58
2022-12-11T09:56:26.128Z,1.80
2022-12-11T09:59:23.504Z,1.52
2022-12-11T10:02:08.975Z,1.73
2022-12-11T10:04:35.577Z,1.60
2022-12-11T10:07:21.012Z,1.30
2022-12-11T10:09:53.891Z,1.40
2022-12-11T10:12:45.205Z,1.60
2022-12-11T10:15:35.403Z,1.50
2022-12-11T10:18:05.498Z,1.70
2022-12-11T10:20:39.045Z,1.80
2022-12-11T10:23:15.428Z,1.65
2022-12-11T10:25:49.841Z,1.52
2022-12-11T10:28:19.286Z,1.63
2022-12-11T10:31:03.337Z,1.30
2022-12-11T10:33:53.985Z,1.50
2022-12-11T10:36:27.046Z,1.63
2022-12-11T10:38:53.608Z,1.60
2022-12-11T10:41:29.784Z,1.48
2022-12-11T10:43:56.622Z,1.50
2022-12-11T10:46:28.087Z,1.50
2022-12-11T10:48:54.670Z,1.40
2022-12-11T10:51:24.731Z,1.63
2022-12-11T10:53:53.923Z,1.50
2022-12-11T10:56:29.029Z,1.20
2022-12-11T10:58:57.660Z,1.55
2022-12-11T11:01:27.287Z,1.40
2022-12-11T11:03:56.811Z,1.50
2022-12-11T11:06:24.799Z,1.50
2022-12-11T11:08:54.228Z,1.25
2022-12-11T11:11:33.913Z,1.48
2022-12-11T11:14:21.078Z,1.45
2022-12-11T11:16:50.395Z,1.50
2022-12-11T11:19:31.520Z,1.60
2022-12-11T11:22:03.128Z,1.50
2022-12-11T11:24:36.478Z,1.23
2022-12-11T11:27:13.712Z,1.45
2022-12-11T11:29:42.062Z,1.50
2022-12-11T11:32:32.819Z,1.40
2022-12-11T11:35:21.322Z,1.40
2022-12-11T11:37:58.902Z,1.30
2022-12-11T11:40:38.497Z,1.30
2022-12-11T11:43:30.588Z,1.50
2022-12-11T11:46:02.022Z,1.60
2022-12-11T11:48:46.543Z,1.40
2022-12-11T11:51:15.762Z,1.30
2022-12-11T11:53:48.260Z,1.60
2022-12-11T11:56:28.866Z,1.30
2022-12-11T11:59:17.481Z,1.30
2022-12-11T12:01:44.615Z,1.27
2022-12-11T12:04:12.503Z,1.40
2022-12-11T12:07:00.704Z,1.17
2022-12-11T12:10:05.049Z,1.70
2022-12-11T12:12:48.002Z,1.20
2022-12-11T12:15:25.283Z,1.50
2022-12-11T12:17:58.604Z,1.45
2022-12-11T12:20:31.014Z,1.52
2022-12-11T12:23:15.967Z,1.40
2022-12-11T12:25:59.164Z,1.30
2022-12-11T12:28:51.977Z,1.48
2022-12-11T12:31:37.451Z,1.58
2022-12-11T12:34:33.144Z,1.70
2022-12-11T12:37:24.157Z,1.45
2022-12-11T12:39:50.657Z,1.40
2022-12-11T12:42:41.854Z,1.35
2022-12-11T12:45:14.331Z,1.60
2022-12-11T12:47:44.470Z,1.50
2022-12-11T12:50:17.107Z,1.33
2022-12-11T12:52:44.876Z,1.35
2022-12-11T12:55:14.609Z,1.30
2022-12-11T12:57:55.450Z,1.10
2022-12-11T13:00:31.701Z,1.30
2022-12-11T13:03:01.456Z,1.20
2022-12-11T13:05:34.565Z,1.50
2022-12-11T13:08:08.493Z,1.20
2022-12-11T13:10:38.081Z,1.40
2022-12-11T13:13:06.647Z,1.45
2022-12-11T13:15:43.853Z,1.40
2022-12-11T13:18:32.832Z,1.30
2022-12-11T13:20:59.619Z,1.30
2022-12-11T13:23:40.265Z,1.38
2022-12-11T13:26:09.405Z,1.13
2022-12-11T13:28:38.682Z,1.40
2022-12-11T13:31:05.483Z,1.38
2022-12-11T13:33:32.911Z,1.10
2022-12-11T13:36:13.045Z,1.30
2022-12-11T13:38:49.605Z,1.25
2022-12-11T13:41:18.920Z,1.10
2022-12-11T13:43:48.572Z,1.38
2022-12-11T13:46:21.124Z,1.33
2022-12-11T13:48:53.802Z,1.23
2022-12-11T13:51:22.964Z,1.30
2022-12-11T13:53:49.609Z,1.50
2022-12-11T13:56:20.982Z,1.20
2022-12-11T13:58:48.302Z,1.23
2022-12-11T14:01:33.926Z,1.30
2022-12-11T14:04:09.676Z,1.17
2022-12-11T14:06:38.874Z,0.90
2022-12-11T14:09:07.180Z,1.23
2022-12-11T14:11:40.959Z,1.13
2022-12-11T14:14:29.578Z,1.20
2022-12-11T14:16:56.703Z,1.15
2022-12-11T14:19:24.879Z,1.15
2022-12-11T14:22:05.689Z,1.10
2022-12-11T14:24:33.004Z,1.08
2022-12-11T14:27:00.123Z,1.27
2022-12-11T14:29:32.226Z,1.30
2022-12-11T14:32:05.510Z,1.23
2022-12-11T14:34:43.507Z,1.08
2022-12-11T14:37:11.082Z,1.17
2022-12-11T14:39:58.071Z,1.20
2022-12-11T14:42:49.592Z,1.10
2022-12-11T14:45:20.486Z,1.20
2022-12-11T14:47:47.287Z,1.33
2022-12-11T14:50:19.432Z,0.93
2022-12-11T14:52:50.783Z,1.10
2022-12-11T14:55:22.285Z,1.25
2022-12-11T14:57:52.459Z,1.20
2022-12-11T15:00:30.366Z,1.23
2022-12-11T15:03:23.551Z,1.33
2022-12-11T15:05:50.103Z,1.30
2022-12-11T15:08:25.495Z,1.02
2022-12-11T15:11:04.360Z,1.13
2022-12-11T15:13:31.962Z,1.17
2022-12-11T15:15:59.090Z,1.05
2022-12-11T15:18:32.750Z,1.20
2022-12-11T15:21:11.465Z,1.40
2022-12-11T15:23:54.823Z,1.00
2022-12-11T15:26:40.882Z,1.20
2022-12-11T15:29:26.599Z,1.20
2022-12-11T15:32:04.601Z,1.10
2022-12-11T15:35:00.475Z,0.80
2022-12-11T15:37:30.285Z,1.17
2022-12-11T15:39:58.967Z,1.27
2022-12-11T15:42:39.053Z,1.38
2022-12-11T15:45:08.197Z,1.40
2022-12-11T15:47:34.764Z,1.35
2022-12-11T15:50:19.771Z,1.45
2022-12-11T15:52:46.644Z,1.00
2022-12-11T15:55:13.495Z,1.20
2022-12-11T15:57:46.724Z,1.30
2022-12-11T16:00:21.407Z,1.40
2022-12-11T16:02:48.281Z,1.38
2022-12-11T16:05:15.454Z,1.23
2022-12-11T16:07:44.559Z,1.20
2022-12-11T16:10:17.741Z,1.00
2022-12-11T16:12:44.793Z,1.17
2022-12-11T16:15:15.298Z,1.38
2022-12-11T16:17:44.167Z,1.20
2022-12-11T16:20:13.068Z,1.38
2022-12-11T16:22:39.647Z,1.25
2022-12-11T16:25:06.717Z,1.30
2022-12-11T16:27:33.286Z,1.30
2022-12-11T16:29:59.953Z,1.60
2022-12-11T16:32:26.521Z,1.38
2022-12-11T16:34:54.075Z,1.50
2022-12-11T16:37:20.683Z,1.33
2022-12-11T16:39:47.475Z,1.40
2022-12-11T16:42:14.120Z,1.48
2022-12-11T16:44:43.986Z,1.70
2022-12-11T16:47:11.144Z,1.20
2022-12-11T16:49:37.828Z,1.33
2022-12-11T16:52:04.670Z,1.40
2022-12-11T16:54:31.469Z,1.52
2022-12-11T16:56:58.109Z,1.30
2022-12-11T16:59:24.964Z,1.20
2022-12-11T17:01:52.025Z,1.25
2022-12-11T17:04:18.917Z,1.25
2022-12-11T17:06:46.443Z,1.52
2022-12-11T17:09:13.029Z,1.50
2022-12-11T17:11:39.646Z,1.50
2022-12-11T17:14:06.497Z,1.55
2022-12-11T17:16:34.062Z,1.40
2022-12-11T17:19:00.872Z,1.58
2022-12-11T17:21:27.493Z,1.30
2022-12-11T17:23:54.180Z,1.60
2022-12-11T17:26:20.889Z,1.33
2022-12-11T17:28:47.891Z,1.40
2022-12-11T17:31:18.974Z,1.60
2022-12-11T17:33:46.685Z,1.40
2022-12-11T17:36:16.545Z,1.42
2022-12-11T17:38:43.191Z,1.55
2022-12-11T17:41:18.374Z,1.70
2022-12-11T17:43:48.172Z,1.40
2022-12-11T17:46:14.868Z,1.40
2022-12-11T17:48:41.506Z,1.45
2022-12-11T17:51:09.466Z,1.30
2022-12-11T17:53:36.459Z,1.45
2022-12-11T17:56:05.280Z,1.25
2022-12-11T17:58:31.982Z,1.40
2022-12-11T18:00:58.948Z,1.50
2022-12-11T18:03:27.375Z,1.30
2022-12-11T18:05:56.420Z,1.60
2022-12-11T18:08:31.975Z,1.55
2022-12-11T18:11:05.873Z,1.10
2022-12-11T18:13:32.475Z,1.50
2022-12-11T18:16:03.955Z,1.20
2022-12-11T18:18:30.905Z,1.60
2022-12-11T18:20:58.150Z,1.40
2022-12-11T18:23:25.151Z,1.40
2022-12-11T18:25:51.971Z,1.50
2022-12-11T18:28:18.798Z,1.50
2022-12-11T18:30:45.377Z,1.50
2022-12-11T18:33:13.213Z,1.15
2022-12-11T18:35:41.456Z,1.25
2022-12-11T18:38:08.301Z,1.40
2022-12-11T18:40:35.030Z,1.58
2022-12-11T18:43:01.769Z,1.33
2022-12-11T18:45:28.431Z,1.42
2022-12-11T18:47:56.557Z,1.48
2022-12-11T18:50:23.277Z,1.45
2022-12-11T18:52:54.147Z,1.70
2022-12-11T18:55:21.018Z,1.35
2022-12-11T18:57:47.656Z,1.60
2022-12-11T19:00:15.335Z,1.50
2022-12-11T19:02:42.314Z,1.70
2022-12-11T19:05:09.693Z,1.58
2022-12-11T19:07:37.086Z,1.50
2022-12-11T19:10:05.036Z,1.60
2022-12-11T19:12:31.889Z,1.60
2022-12-11T19:14:58.436Z,1.50
2022-12-11T19:17:25.085Z,1.80
2022-12-11T19:19:51.662Z,1.77
2022-12-11T19:22:18.242Z,2.00
2022-12-11T19:24:45.046Z,1.80
2022-12-11T19:27:13.726Z,1.80
2022-12-11T19:29:41.276Z,1.67
2022-12-11T19:32:07.864Z,1.88
2022-12-11T19:34:34.472Z,1.70
2022-12-11T19:37:01.099Z,2.15
2022-12-11T19:39:27.861Z,1.80
2022-12-11T19:41:54.407Z,1.60
2022-12-11T19:44:21.024Z,2.05
2022-12-11T19:46:47.758Z,1.75
2022-12-11T19:49:14.478Z,1.85
2022-12-11T19:51:43.381Z,1.92
2022-12-11T19:54:13.604Z,1.95
2022-12-11T19:56:40.726Z,1.70
2022-12-11T19:59:11.638Z,2.05
2022-12-11T20:01:38.889Z,1.92
2022-12-11T20:04:12.816Z,1.88
2022-12-11T20:06:41.803Z,2.00
2022-12-11T20:09:11.816Z,1.73
2022-12-11T20:11:43.212Z,1.80
2022-12-11T20:14:25.741Z,2.10
2022-12-11T20:17:10.518Z,2.30
2022-12-11T20:19:39.332Z,2.63
2022-12-11T20:22:06.184Z,2.13
2022-12-11T20:24:32.837Z,2.10
2022-12-11T20:27:00.170Z,2.20
2022-12-11T20:29:27.211Z,2.17
2022-12-11T20:31:53.882Z,2.20
2022-12-11T20:34:20.536Z,2.10
2022-12-11T20:36:48.601Z,2.40
2022-12-11T20:39:16.884Z,2.15
2022-12-11T20:41:43.934Z,2.22
2022-12-11T20:44:10.670Z,1.95
2022-12-11T20:46:37.253Z,2.45
2022-12-11T20:49:03.977Z,2.15
2022-12-11T20:51:32.523Z,2.00
2022-12-11T20:53:59.666Z,2.10
2022-12-11T20:56:29.890Z,2.08
2022-12-11T20:58:57.610Z,2.13
2022-12-11T21:01:26.136Z,2.30
2022-12-11T21:03:53.628Z,2.40
2022-12-11T21:06:21.860Z,2.33
2022-12-11T21:08:48.669Z,2.40
2022-12-11T21:11:15.450Z,2.20
2022-12-11T21:13:42.300Z,2.28
2022-12-11T21:16:10.430Z,2.50
2022-12-11T21:18:37.595Z,2.35
2022-12-11T21:21:04.513Z,1.95
2022-12-11T21:23:31.805Z,2.25
2022-12-11T21:25:58.435Z,2.10
2022-12-11T21:28:25.014Z,2.20
2022-12-11T21:30:51.585Z,2.38
2022-12-11T21:33:18.158Z,2.50
2022-12-11T21:35:44.736Z,2.30
2022-12-11T21:38:11.393Z,2.03
2022-12-11T21:40:38.017Z,2.00
2022-12-11T21:43:04.669Z,2.30
2022-12-11T21:46:00.490Z,2.13
2022-12-11T21:48:22.035Z,2.60
2022-12-11T21:50:48.596Z,2.30
2022-12-11T21:53:15.229Z,2.15
2022-12-11T21:55:42.353Z,2.25
2022-12-11T21:58:10.151Z,2.22
2022-12-11T22:00:38.216Z,2.30
2022-12-11T22:03:05.999Z,2.15
2022-12-11T22:05:32.895Z,2.10
2022-12-11T22:07:59.543Z,2.20
2022-12-11T22:10:26.226Z,2.30
2022-12-11T22:12:52.801Z,2.30
2022-12-11T22:15:19.478Z,2.42
2022-12-11T22:17:46.324Z,2.20
2022-12-11T22:20:13.074Z,2.30
2022-12-11T22:22:39.751Z,2.30
2022-12-11T22:25:07.895Z,2.22
2022-12-11T22:27:34.862Z,2.45
2022-12-11T22:30:01.512Z,2.10
2022-12-11T22:32:28.289Z,2.50
2022-12-11T22:34:56.322Z,1.90
2022-12-11T22:37:22.983Z,2.00
2022-12-11T22:39:49.659Z,2.42
2022-12-11T22:42:16.360Z,2.20
2022-12-11T22:44:42.943Z,2.40
2022-12-11T22:47:09.503Z,2.50
2022-12-11T22:49:36.224Z,1.90
2022-12-11T22:52:02.864Z,2.22
2022-12-11T22:54:29.432Z,2.22
2022-12-11T22:56:56.022Z,2.28
2022-12-11T22:59:23.213Z,2.05
2022-12-11T23:01:49.762Z,2.10
2022-12-11T23:04:16.353Z,2.20
2022-12-11T23:06:42.919Z,2.00
2022-12-11T23:09:10.781Z,2.00
2022-12-11T23:11:38.208Z,2.17
2022-12-11T23:14:07.346Z,2.08
2022-12-11T23:16:34.359Z,2.45
2022-12-11T23:19:00.953Z,2.25
2022-12-11T23:21:28.115Z,2.20
2022-12-11T23:23:56.023Z,2.22
2022-12-11T23:26:22.826Z,2.25
2022-12-11T23:28:49.881Z,2.10
2022-12-11T23:31:17.082Z,2.30
2022-12-11T23:33:43.804Z,2.30
2022-12-11T23:36:10.684Z,2.05
2022-12-11T23:38:37.564Z,2.20
2022-12-11T23:41:05.372Z,1.95
2022-12-11T23:43:32.167Z,1.90
2022-12-11T23:45:58.790Z,2.28
2022-12-11T23:48:25.408Z,2.22
2022-12-11T23:50:52.048Z,2.05
2022-12-11T23:53:18.933Z,2.30
2022-12-11T23:55:45.721Z,2.15
2022-12-11T23:58:12.290Z,2.00
